createdAt,value
2018-02-05T00:00:05.399Z,42.00
2018-02-05T00:01:05.394Z,43.70
2018-02-05T00:02:05.394Z,40.70
2018-02-05T00:03:05.399Z,41.20
2018-02-05T00:04:05.391Z,39.30
2018-02-05T00:05:05.386Z,41.70
2018-02-05T00:06:05.386Z,42.20
2018-02-05T00:07:05.381Z,41.00
2018-02-05T00:08:05.391Z,39.80
2018-02-05T00:09:05.368Z,38.00
2018-02-05T00:10:05.380Z,41.00
2018-02-05T00:11:05.380Z,39.10
2018-02-05T00:12:05.363Z,39.40
2018-02-05T00:13:05.364Z,40.00
2018-02-05T00:14:05.359Z,39.70
2018-02-05T00:15:05.361Z,40.30
2018-02-05T00:16:05.354Z,38.20
2018-02-05T00:17:05.348Z,37.20
2018-02-05T00:18:05.342Z,38.20
2018-02-05T00:19:05.358Z,35.50
2018-02-05T00:20:05.365Z,36.10
2018-02-05T00:21:05.343Z,36.80
2018-02-05T00:22:05.334Z,40.00
2018-02-05T00:23:05.337Z,38.00
2018-02-05T00:24:05.336Z,36.00
2018-02-05T00:25:05.342Z,38.00
2018-02-05T00:26:05.339Z,35.40
2018-02-05T00:27:05.329Z,37.80
2018-02-05T00:28:05.329Z,37.20
2018-02-05T00:29:05.322Z,37.40
2018-02-05T00:30:05.325Z,38.90
2018-02-05T00:31:05.319Z,38.30
2018-02-05T00:32:05.331Z,38.30
2018-02-05T00:33:05.315Z,37.60
2018-02-05T00:34:05.357Z,38.90
2018-02-05T00:35:05.300Z,37.40
2018-02-05T00:36:05.298Z,37.40
2018-02-05T00:37:05.307Z,36.70
2018-02-05T00:38:05.297Z,36.90
2018-02-05T00:39:05.297Z,37.10
2018-02-05T00:40:05.297Z,38.60
2018-02-05T00:41:05.293Z,36.70
2018-02-05T00:42:05.287Z,37.20
2018-02-05T00:43:05.287Z,35.20
2018-02-05T00:44:05.282Z,39.00
2018-02-05T00:45:05.283Z,37.80
2018-02-05T00:46:05.272Z,38.80
2018-02-05T00:47:05.270Z,37.60
2018-02-05T00:48:05.266Z,38.70
2018-02-05T00:49:05.266Z,37.50
2018-02-05T00:50:05.268Z,38.90
2018-02-05T00:51:05.255Z,37.40
2018-02-05T00:52:05.262Z,38.40
2018-02-05T00:53:05.250Z,40.80
2018-02-05T00:54:05.242Z,39.50
2018-02-05T00:55:05.240Z,38.00
2018-02-05T00:56:05.242Z,37.20
2018-02-05T00:57:06.117Z,39.10
2018-02-05T00:58:05.241Z,38.50
2018-02-05T00:59:05.239Z,38.10
2018-02-05T01:00:05.240Z,39.40
2018-02-05T01:01:05.220Z,40.20
2018-02-05T01:02:05.227Z,38.90
2018-02-05T01:03:05.224Z,35.30
2018-02-05T01:04:05.226Z,39.60
2018-02-05T01:05:05.210Z,38.20
2018-02-05T01:06:05.215Z,39.70
2018-02-05T01:07:05.211Z,41.20
2018-02-05T01:08:05.215Z,42.40
2018-02-05T01:09:05.207Z,40.00
2018-02-05T01:10:05.202Z,40.70
2018-02-05T01:11:05.201Z,39.10
2018-02-05T01:12:05.191Z,39.10
2018-02-05T01:13:05.211Z,39.90
2018-02-05T01:14:05.197Z,39.00
2018-02-05T01:15:05.192Z,40.60
2018-02-05T01:16:05.190Z,39.20
2018-02-05T01:17:05.189Z,39.80
2018-02-05T01:18:05.178Z,42.30
2018-02-05T01:19:05.169Z,39.80
2018-02-05T01:20:05.177Z,38.60
2018-02-05T01:21:05.166Z,43.40
2018-02-05T01:22:05.166Z,40.80
2018-02-05T01:23:05.156Z,38.20
2018-02-05T01:24:05.160Z,38.80
2018-02-05T01:25:05.153Z,39.80
2018-02-05T01:26:05.161Z,43.00
2018-02-05T01:27:05.157Z,38.70
2018-02-05T01:28:05.147Z,39.40
2018-02-05T01:29:05.144Z,41.10
2018-02-05T01:30:05.153Z,41.00
2018-02-05T01:31:05.197Z,40.80
2018-02-05T01:32:05.131Z,41.80
2018-02-05T01:33:05.135Z,42.70
2018-02-05T01:34:05.124Z,37.90
2018-02-05T01:35:05.119Z,40.30
2018-02-05T01:36:05.133Z,39.50
2018-02-05T01:37:05.119Z,41.50
2018-02-05T01:38:05.112Z,38.80
2018-02-05T01:39:05.130Z,39.10
2018-02-05T01:40:05.109Z,39.40
2018-02-05T01:41:05.624Z,39.40
2018-02-05T01:42:05.111Z,41.50
2018-02-05T01:43:05.097Z,37.80
2018-02-05T01:44:05.174Z,39.60
2018-02-05T01:45:05.092Z,39.00
2018-02-05T01:46:05.096Z,38.00
2018-02-05T01:47:05.092Z,38.60
2018-02-05T01:48:05.081Z,39.80
2018-02-05T01:49:05.075Z,38.10
2018-02-05T01:50:05.080Z,39.00
2018-02-05T01:51:05.074Z,38.10
2018-02-05T01:52:05.084Z,37.00
2018-02-05T01:53:05.070Z,36.20
2018-02-05T01:54:05.066Z,35.60
2018-02-05T01:55:05.063Z,38.20
2018-02-05T01:56:05.058Z,36.90
2018-02-05T01:57:05.114Z,36.60
2018-02-05T01:58:05.056Z,36.60
2018-02-05T01:59:05.072Z,39.40
2018-02-05T02:00:05.040Z,37.60
2018-02-05T02:01:05.042Z,36.90
2018-02-05T02:02:05.045Z,37.40
2018-02-05T02:03:05.036Z,36.10
2018-02-05T02:04:05.037Z,36.80
2018-02-05T02:05:05.036Z,37.20
2018-02-05T02:06:05.014Z,37.70
2018-02-05T02:07:05.032Z,37.70
2018-02-05T02:08:05.020Z,36.90
2018-02-05T02:09:05.029Z,36.50
2018-02-05T02:10:05.007Z,36.70
2018-02-05T02:11:05.020Z,40.60
2018-02-05T02:12:05.010Z,37.10
2018-02-05T02:13:05.005Z,37.00
2018-02-05T02:14:04.997Z,36.40
2018-02-05T02:15:04.997Z,37.30
2018-02-05T02:16:04.990Z,38.90
2018-02-05T02:17:04.990Z,37.40
2018-02-05T02:18:04.985Z,37.70
2018-02-05T02:19:04.980Z,36.80
2018-02-05T02:20:04.967Z,38.90
2018-02-05T02:21:04.969Z,37.70
2018-02-05T02:22:04.973Z,36.60
2018-02-05T02:23:04.977Z,36.20
2018-02-05T02:24:04.965Z,37.20
2018-02-05T02:25:05.045Z,37.50
2018-02-05T02:26:04.958Z,34.50
2018-02-05T02:27:04.961Z,37.10
2018-02-05T02:28:05.620Z,37.30
2018-02-05T02:29:04.947Z,37.60
2018-02-05T02:30:04.950Z,37.50
2018-02-05T02:31:04.945Z,35.40
2018-02-05T02:32:04.937Z,37.10
2018-02-05T02:33:04.953Z,37.50
2018-02-05T02:34:04.935Z,39.20
2018-02-05T02:35:04.925Z,37.50
2018-02-05T02:36:04.936Z,36.70
2018-02-05T02:37:04.948Z,37.60
2018-02-05T02:38:04.923Z,40.40
2018-02-05T02:39:04.922Z,36.60
2018-02-05T02:40:04.914Z,36.80
2018-02-05T02:41:04.926Z,39.10
2018-02-05T02:42:04.907Z,39.10
2018-02-05T02:43:04.907Z,36.90
2018-02-05T02:44:04.932Z,37.30
2018-02-05T02:45:04.900Z,40.40
2018-02-05T02:46:04.903Z,38.30
2018-02-05T02:47:04.913Z,41.30
2018-02-05T02:48:04.895Z,39.90
2018-02-05T02:49:04.890Z,39.00
2018-02-05T02:50:04.889Z,37.70
2018-02-05T02:51:04.887Z,40.40
2018-02-05T02:52:04.893Z,38.80
2018-02-05T02:53:04.910Z,38.00
2018-02-05T02:54:05.626Z,35.90
2018-02-05T02:55:04.872Z,37.30
2018-02-05T02:56:04.879Z,37.30
2018-02-05T02:57:04.870Z,39.50
2018-02-05T02:58:04.857Z,39.00
2018-02-05T02:59:04.852Z,40.50
2018-02-05T03:00:04.841Z,40.00
2018-02-05T03:01:04.852Z,41.40
2018-02-05T03:02:04.852Z,39.90
2018-02-05T03:03:04.829Z,39.60
2018-02-05T03:04:04.842Z,39.40
2018-02-05T03:05:04.838Z,41.60
2018-02-05T03:06:04.818Z,38.90
2018-02-05T03:07:04.828Z,41.00
2018-02-05T03:08:04.816Z,43.80
2018-02-05T03:09:04.818Z,41.30
2018-02-05T03:10:04.835Z,41.60
2018-02-05T03:11:04.814Z,41.50
2018-02-05T03:12:04.805Z,39.70
2018-02-05T03:13:04.804Z,42.00
2018-02-05T03:14:04.797Z,38.60
2018-02-05T03:15:04.799Z,41.80
2018-02-05T03:16:04.812Z,41.90
2018-02-05T03:17:04.796Z,42.40
2018-02-05T03:18:04.790Z,41.50
2018-02-05T03:19:04.776Z,43.00
2018-02-05T03:20:04.784Z,41.70
2018-02-05T03:21:04.770Z,41.60
2018-02-05T03:22:04.767Z,44.80
2018-02-05T03:23:04.772Z,41.50
2018-02-05T03:24:04.761Z,41.00
2018-02-05T03:25:04.755Z,44.60
2018-02-05T03:26:04.773Z,42.10
2018-02-05T03:27:04.756Z,43.40
2018-02-05T03:28:04.779Z,42.00
2018-02-05T03:29:04.748Z,42.70
2018-02-05T03:30:04.765Z,40.30
2018-02-05T03:31:04.748Z,44.20
2018-02-05T03:32:04.749Z,38.80
2018-02-05T03:33:04.728Z,41.10
2018-02-05T03:34:04.729Z,40.30
2018-02-05T03:35:04.724Z,40.70
2018-02-05T03:36:04.731Z,38.80
2018-02-05T03:37:04.715Z,38.80
2018-02-05T03:38:04.712Z,39.40
2018-02-05T03:39:04.714Z,38.40
2018-02-05T03:40:04.713Z,38.10
2018-02-05T03:41:04.737Z,37.50
2018-02-05T03:42:04.706Z,38.70
2018-02-05T03:43:04.703Z,41.90
2018-02-05T03:44:04.696Z,39.30
2018-02-05T03:45:04.691Z,38.40
2018-02-05T03:46:04.694Z,38.50
2018-02-05T03:47:04.715Z,38.80
2018-02-05T03:48:04.679Z,36.40
2018-02-05T03:49:04.690Z,40.80
2018-02-05T03:50:04.684Z,38.80
2018-02-05T03:51:04.673Z,40.80
2018-02-05T03:52:04.664Z,39.80
2018-02-05T03:53:04.675Z,40.00
2018-02-05T03:54:04.664Z,39.30
2018-02-05T03:55:04.664Z,40.00
2018-02-05T03:56:04.649Z,37.30
2018-02-05T03:57:04.652Z,40.10
2018-02-05T03:58:04.648Z,39.20
2018-02-05T03:59:04.658Z,38.70
2018-02-05T04:00:04.643Z,38.10
2018-02-05T04:01:04.643Z,40.20
2018-02-05T04:02:04.636Z,38.30
2018-02-05T04:03:04.680Z,35.70
2018-02-05T04:04:04.624Z,35.70
2018-02-05T04:05:04.617Z,35.90
2018-02-05T04:06:04.626Z,36.40
2018-02-05T04:07:04.639Z,34.50
2018-02-05T04:08:04.617Z,34.20
2018-02-05T04:09:04.623Z,33.80
2018-02-05T04:10:04.604Z,36.60
2018-02-05T04:11:04.600Z,34.20
2018-02-05T04:12:04.684Z,34.90
2018-02-05T04:13:04.593Z,35.50
2018-02-05T04:14:04.602Z,33.60
2018-02-05T04:15:04.589Z,33.00
2018-02-05T04:16:04.580Z,35.70
2018-02-05T04:17:04.585Z,35.50
2018-02-05T04:18:04.583Z,34.30
2018-02-05T04:19:04.580Z,36.00
2018-02-05T04:20:04.578Z,36.50
2018-02-05T04:21:04.567Z,32.80
2018-02-05T04:22:04.564Z,37.20
2018-02-05T04:23:04.566Z,34.10
2018-02-05T04:24:04.560Z,35.80
2018-02-05T04:25:04.557Z,36.90
2018-02-05T04:26:04.550Z,36.70
2018-02-05T04:27:04.556Z,35.10
2018-02-05T04:28:04.542Z,36.90
2018-02-05T04:29:04.547Z,34.50
2018-02-05T04:30:04.565Z,34.00
2018-02-05T04:31:04.545Z,32.80
2018-02-05T04:32:04.531Z,32.20
2018-02-05T04:33:04.517Z,33.10
2018-02-05T04:34:04.519Z,33.20
2018-02-05T04:35:05.139Z,33.20
2018-02-05T04:36:04.513Z,34.10
2018-02-05T04:37:04.515Z,31.50
2018-02-05T04:38:04.523Z,31.70
2018-02-05T04:39:04.508Z,32.70
2018-02-05T04:40:04.494Z,33.20
2018-02-05T04:41:04.492Z,31.70
2018-02-05T04:42:04.504Z,30.80
2018-02-05T04:43:04.503Z,32.40
2018-02-05T04:44:04.496Z,30.30
2018-02-05T04:45:04.486Z,34.80
2018-02-05T04:46:04.489Z,30.00
2018-02-05T04:47:04.482Z,30.80
2018-02-05T04:48:04.479Z,30.80
2018-02-05T04:49:04.664Z,36.00
2018-02-05T04:50:04.479Z,31.00
2018-02-05T04:51:04.595Z,30.30
2018-02-05T04:52:04.462Z,30.00
2018-02-05T04:53:04.471Z,32.90
2018-02-05T04:54:04.460Z,31.80
2018-02-05T04:55:04.454Z,32.00
2018-02-05T04:56:04.448Z,32.40
2018-02-05T04:57:04.456Z,30.60
2018-02-05T04:58:04.452Z,33.60
2018-02-05T04:59:04.442Z,29.70
2018-02-05T05:00:04.445Z,31.60
2018-02-05T05:01:04.441Z,32.20
2018-02-05T05:02:04.437Z,30.20
2018-02-05T05:03:04.438Z,32.10
2018-02-05T05:04:04.428Z,31.70
2018-02-05T05:05:04.423Z,30.60
2018-02-05T05:06:04.426Z,31.10
2018-02-05T05:07:04.413Z,29.90
2018-02-05T05:08:04.408Z,31.60
2018-02-05T05:09:04.409Z,31.80
2018-02-05T05:10:04.407Z,33.70
2018-02-05T05:11:04.397Z,29.90
2018-02-05T05:12:04.404Z,31.70
2018-02-05T05:13:04.398Z,33.20
2018-02-05T05:14:04.397Z,32.50
2018-02-05T05:15:04.394Z,31.40
2018-02-05T05:16:04.390Z,32.40
2018-02-05T05:17:04.387Z,33.80
2018-02-05T05:18:04.376Z,30.50
2018-02-05T05:19:04.384Z,33.50
2018-02-05T05:20:04.376Z,36.20
2018-02-05T05:21:04.376Z,34.10
2018-02-05T05:22:04.468Z,31.40
2018-02-05T05:23:04.356Z,33.90
2018-02-05T05:24:04.369Z,32.40
2018-02-05T05:25:04.370Z,34.70
2018-02-05T05:26:04.365Z,31.00
2018-02-05T05:27:04.363Z,32.10
2018-02-05T05:28:04.350Z,32.90
2018-02-05T05:29:04.339Z,35.20
2018-02-05T05:30:04.370Z,31.70
2018-02-05T05:31:04.343Z,33.00
2018-02-05T05:32:04.342Z,33.90
2018-02-05T05:33:04.337Z,31.50
2018-02-05T05:34:04.331Z,34.30
2018-02-05T05:35:05.145Z,32.10
2018-02-05T05:36:04.321Z,33.90
2018-02-05T05:37:04.316Z,36.20
2018-02-05T05:38:04.321Z,35.10
2018-02-05T05:39:04.309Z,36.40
2018-02-05T05:40:04.314Z,36.80
2018-02-05T05:41:04.320Z,36.70
2018-02-05T05:42:04.310Z,36.50
2018-02-05T05:43:04.305Z,33.00
2018-02-05T05:44:04.306Z,34.20
2018-02-05T05:45:04.304Z,34.20
2018-02-05T05:46:04.292Z,35.40
2018-02-05T05:47:04.300Z,34.50
2018-02-05T05:48:04.368Z,37.60
2018-02-05T05:49:04.277Z,34.60
2018-02-05T05:50:04.307Z,35.00
2018-02-05T05:51:04.279Z,35.30
2018-02-05T05:52:04.270Z,35.10
2018-02-05T05:53:04.347Z,34.70
2018-02-05T05:54:04.273Z,34.70
2018-02-05T05:55:04.326Z,33.60
2018-02-05T05:56:04.258Z,35.50
2018-02-05T05:57:04.260Z,37.00
2018-02-05T05:58:04.255Z,35.60
2018-02-05T05:59:04.255Z,34.10
2018-02-05T06:00:04.269Z,35.70
2018-02-05T06:01:04.334Z,34.80
2018-02-05T06:02:04.263Z,33.80
2018-02-05T06:03:04.249Z,33.90
2018-02-05T06:04:04.256Z,33.60
2018-02-05T06:05:04.238Z,33.40
2018-02-05T06:06:04.233Z,34.00
2018-02-05T06:07:04.221Z,36.20
2018-02-05T06:08:04.227Z,34.60
2018-02-05T06:09:04.222Z,35.40
2018-02-05T06:10:04.221Z,35.60
2018-02-05T06:11:04.224Z,35.60
2018-02-05T06:12:04.209Z,37.50
2018-02-05T06:13:04.259Z,35.50
2018-02-05T06:14:04.203Z,38.90
2018-02-05T06:15:04.212Z,38.70
2018-02-05T06:16:04.205Z,36.20
2018-02-05T06:17:04.196Z,36.00
2018-02-05T06:18:04.203Z,36.00
2018-02-05T06:19:04.184Z,38.70
2018-02-05T06:20:04.183Z,38.00
2018-02-05T06:21:04.180Z,36.50
2018-02-05T06:22:04.189Z,37.80
2018-02-05T06:23:04.182Z,39.20
2018-02-05T06:24:04.163Z,38.40
2018-02-05T06:25:04.319Z,40.60
2018-02-05T06:26:04.166Z,36.70
2018-02-05T06:27:04.171Z,38.40
2018-02-05T06:28:04.152Z,38.60
2018-02-05T06:29:04.158Z,37.20
2018-02-05T06:30:04.164Z,38.20
2018-02-05T06:31:04.155Z,40.80
2018-02-05T06:32:04.141Z,42.20
2018-02-05T06:33:04.150Z,39.10
2018-02-05T06:34:04.167Z,39.00
2018-02-05T06:35:04.151Z,41.30
2018-02-05T06:36:04.142Z,39.80
2018-02-05T06:37:04.139Z,38.20
2018-02-05T06:38:04.132Z,44.80
2018-02-05T06:39:04.131Z,40.40
2018-02-05T06:40:04.187Z,38.20
2018-02-05T06:41:04.120Z,40.90
2018-02-05T06:42:04.120Z,39.20
2018-02-05T06:43:04.174Z,38.70
2018-02-05T06:44:04.125Z,41.60
2018-02-05T06:45:04.120Z,39.10
2018-02-05T06:46:04.119Z,41.20
2018-02-05T06:47:04.172Z,40.80
2018-02-05T06:48:04.106Z,42.40
2018-02-05T06:49:04.116Z,39.90
2018-02-05T06:50:04.114Z,40.40
2018-02-05T06:51:04.099Z,43.00
2018-02-05T06:52:04.104Z,42.90
2018-02-05T06:53:04.098Z,38.60
2018-02-05T06:54:04.208Z,42.60
2018-02-05T06:55:04.096Z,42.50
2018-02-05T06:56:04.088Z,41.60
2018-02-05T06:57:04.071Z,40.00
2018-02-05T06:58:04.073Z,42.40
2018-02-05T06:59:04.067Z,43.60
2018-02-05T07:00:04.066Z,43.40
2018-02-05T07:01:04.151Z,43.80
2018-02-05T07:02:04.663Z,41.30
2018-02-05T07:03:04.059Z,42.10
2018-02-05T07:04:04.080Z,45.20
2018-02-05T07:05:04.054Z,42.30
2018-02-05T07:06:04.061Z,43.00
2018-02-05T07:07:04.068Z,40.90
2018-02-05T07:08:04.037Z,39.60
2018-02-05T07:09:04.036Z,37.50
2018-02-05T07:10:04.040Z,42.00
2018-02-05T07:11:04.043Z,44.60
2018-02-05T07:12:04.040Z,42.10
2018-02-05T07:13:04.024Z,40.60
2018-02-05T07:14:04.107Z,43.90
2018-02-05T07:15:04.027Z,43.80
2018-02-05T07:16:04.027Z,39.80
2018-02-05T07:17:04.023Z,44.90
2018-02-05T07:18:04.125Z,41.50
2018-02-05T07:19:04.030Z,40.60
2018-02-05T07:20:04.014Z,43.00
2018-02-05T07:21:04.000Z,44.70
2018-02-05T07:22:04.010Z,41.60
2018-02-05T07:23:04.036Z,40.70
2018-02-05T07:24:04.023Z,41.90
2018-02-05T07:25:04.001Z,42.50
2018-02-05T07:26:04.013Z,39.60
2018-02-05T07:27:04.013Z,39.00
2018-02-05T07:28:03.989Z,39.50
2018-02-05T07:29:03.994Z,41.70
2018-02-05T07:30:03.984Z,40.20
2018-02-05T07:31:03.978Z,39.40
2018-02-05T07:32:04.659Z,39.40
2018-02-05T07:33:03.969Z,38.80
2018-02-05T07:34:03.968Z,36.60
2018-02-05T07:35:03.974Z,41.30
2018-02-05T07:36:03.964Z,39.90
2018-02-05T07:37:03.965Z,39.00
2018-02-05T07:38:04.001Z,37.30
2018-02-05T07:39:04.015Z,39.40
2018-02-05T07:40:04.666Z,44.20
2018-02-05T07:41:03.947Z,36.70
2018-02-05T07:42:03.950Z,40.20
2018-02-05T07:43:03.952Z,38.90
2018-02-05T07:44:03.981Z,38.90
2018-02-05T07:45:04.012Z,40.80
2018-02-05T07:46:03.950Z,39.40
2018-02-05T07:47:03.941Z,36.30
2018-02-05T07:48:04.139Z,37.20
2018-02-05T07:49:03.926Z,41.50
2018-02-05T07:50:03.942Z,37.80
2018-02-05T07:51:03.924Z,39.80
2018-02-05T07:52:03.917Z,34.30
2018-02-05T07:53:03.918Z,37.60
2018-02-05T07:54:03.922Z,37.30
2018-02-05T07:55:03.923Z,37.80
2018-02-05T07:56:03.912Z,34.70
2018-02-05T07:57:03.917Z,33.90
2018-02-05T07:58:03.969Z,34.80
2018-02-05T07:59:03.901Z,33.50
2018-02-05T08:00:03.904Z,34.30
2018-02-05T08:01:03.899Z,34.50
2018-02-05T08:02:03.881Z,33.80
2018-02-05T08:03:03.888Z,33.30
2018-02-05T08:04:04.014Z,38.00
2018-02-05T08:05:03.884Z,33.80
2018-02-05T08:06:03.885Z,34.80
2018-02-05T08:07:03.879Z,33.20
2018-02-05T08:08:03.888Z,33.60
2018-02-05T08:09:03.871Z,35.40
2018-02-05T08:10:03.874Z,36.20
2018-02-05T08:11:03.856Z,34.20
2018-02-05T08:12:03.872Z,33.90
2018-02-05T08:13:03.853Z,32.10
2018-02-05T08:14:03.924Z,32.10
2018-02-05T08:15:04.669Z,34.40
2018-02-05T08:16:03.946Z,33.90
2018-02-05T08:17:03.849Z,33.00
2018-02-05T08:18:03.850Z,34.00
2018-02-05T08:19:03.890Z,33.90
2018-02-05T08:20:03.921Z,34.00
2018-02-05T08:21:03.986Z,33.30
2018-02-05T08:22:03.851Z,34.80
2018-02-05T08:23:03.847Z,33.30
2018-02-05T08:24:03.819Z,34.50
2018-02-05T08:25:03.826Z,33.80
2018-02-05T08:26:03.819Z,33.50
2018-02-05T08:27:03.851Z,32.80
2018-02-05T08:28:03.845Z,35.60
2018-02-05T08:29:04.667Z,31.80
2018-02-05T08:30:03.804Z,31.90
2018-02-05T08:31:03.900Z,32.90
2018-02-05T08:32:03.795Z,33.40
2018-02-05T08:33:03.804Z,33.40
2018-02-05T08:34:03.805Z,30.70
2018-02-05T08:35:03.787Z,31.40
2018-02-05T08:36:03.796Z,30.50
2018-02-05T08:37:03.797Z,31.80
2018-02-05T08:38:03.791Z,33.60
2018-02-05T08:39:03.816Z,33.10
2018-02-05T08:40:03.849Z,33.30
2018-02-05T08:41:03.778Z,33.30
2018-02-05T08:42:03.841Z,30.30
2018-02-05T08:43:03.774Z,31.50
2018-02-05T08:44:03.767Z,33.40
2018-02-05T08:45:03.771Z,32.80
2018-02-05T08:46:03.807Z,35.10
2018-02-05T08:47:03.762Z,35.60
2018-02-05T08:48:03.819Z,31.40
2018-02-05T08:49:03.926Z,32.70
2018-02-05T08:50:03.757Z,33.50
2018-02-05T08:51:03.787Z,36.90
2018-02-05T08:52:03.749Z,36.30
2018-02-05T08:53:03.761Z,36.20
2018-02-05T08:54:04.219Z,36.10
2018-02-05T08:55:03.737Z,35.30
2018-02-05T08:56:03.920Z,33.00
2018-02-05T08:57:03.730Z,34.40
2018-02-05T08:58:03.739Z,34.50
2018-02-05T08:59:03.791Z,36.20
2018-02-05T09:00:03.727Z,39.00
2018-02-05T09:01:03.801Z,36.10
2018-02-05T09:02:03.796Z,35.90
2018-02-05T09:03:03.894Z,38.10
2018-02-05T09:04:03.738Z,37.30
2018-02-05T09:05:03.719Z,35.40
2018-02-05T09:06:03.718Z,38.10
2018-02-05T09:07:03.703Z,37.20
2018-02-05T09:08:03.714Z,38.20
2018-02-05T09:09:03.719Z,35.60
2018-02-05T09:10:04.174Z,39.00
2018-02-05T09:11:03.811Z,38.50
2018-02-05T09:12:03.702Z,35.20
2018-02-05T09:13:03.690Z,37.70
2018-02-05T09:14:03.701Z,34.90
2018-02-05T09:15:03.691Z,34.40
2018-02-05T09:16:04.671Z,35.40
2018-02-05T09:17:03.686Z,36.90
2018-02-05T09:18:04.679Z,36.70
2018-02-05T09:19:03.754Z,35.40
2018-02-05T09:20:03.677Z,35.60
2018-02-05T09:21:03.684Z,37.70
2018-02-05T09:22:03.678Z,39.50
2018-02-05T09:23:03.669Z,37.40
2018-02-05T09:24:03.669Z,38.30
2018-02-05T09:25:03.666Z,34.30
2018-02-05T09:26:03.664Z,36.40
2018-02-05T09:27:03.667Z,37.80
2018-02-05T09:28:03.665Z,37.50
2018-02-05T09:29:04.241Z,37.20
2018-02-05T09:30:03.677Z,38.10
2018-02-05T09:31:03.709Z,34.50
2018-02-05T09:32:03.639Z,41.10
2018-02-05T09:33:03.633Z,36.30
2018-02-05T09:34:03.632Z,36.40
2018-02-05T09:35:03.633Z,37.80
2018-02-05T09:36:03.630Z,38.00
2018-02-05T09:37:03.634Z,38.00
2018-02-05T09:38:03.638Z,39.10
2018-02-05T09:39:03.625Z,39.90
2018-02-05T09:40:03.629Z,39.00
2018-02-05T09:41:04.176Z,35.70
2018-02-05T09:42:03.654Z,38.80
2018-02-05T09:43:03.630Z,35.70
2018-02-05T09:44:03.619Z,36.90
2018-02-05T09:45:03.662Z,38.90
2018-02-05T09:46:03.609Z,37.00
2018-02-05T09:47:03.608Z,38.10
2018-02-05T09:48:03.616Z,40.00
2018-02-05T09:49:03.607Z,42.20
2018-02-05T09:50:03.612Z,38.00
2018-02-05T09:51:03.590Z,38.20
2018-02-05T09:52:03.623Z,40.40
2018-02-05T09:53:03.594Z,40.60
2018-02-05T09:54:03.628Z,41.00
2018-02-05T09:55:03.586Z,45.80
2018-02-05T09:56:04.182Z,37.00
2018-02-05T09:57:03.601Z,39.60
2018-02-05T09:58:03.596Z,38.10
2018-02-05T09:59:03.606Z,36.20
2018-02-05T10:00:04.185Z,36.20
2018-02-05T10:01:03.601Z,37.10
2018-02-05T10:02:03.575Z,36.10
2018-02-05T10:03:04.021Z,36.30
2018-02-05T10:04:03.622Z,39.50
2018-02-05T10:05:03.759Z,38.40
2018-02-05T10:06:03.565Z,39.00
2018-02-05T10:07:03.555Z,37.90
2018-02-05T10:08:04.184Z,38.20
2018-02-05T10:09:03.688Z,40.10
2018-02-05T10:10:03.557Z,41.60
2018-02-05T10:11:03.562Z,40.50
2018-02-05T10:12:03.560Z,38.60
2018-02-05T10:13:03.547Z,38.80
2018-02-05T10:14:03.551Z,39.50
2018-02-05T10:15:03.573Z,41.80
2018-02-05T10:16:03.578Z,40.50
2018-02-05T10:17:03.539Z,40.90
2018-02-05T10:18:03.541Z,39.10
2018-02-05T10:19:03.533Z,41.30
2018-02-05T10:20:03.546Z,42.20
2018-02-05T10:21:03.569Z,39.00
2018-02-05T10:22:04.179Z,42.90
2018-02-05T10:23:03.574Z,40.30
2018-02-05T10:24:03.559Z,39.60
2018-02-05T10:25:03.536Z,37.80
2018-02-05T10:26:03.548Z,38.10
2018-02-05T10:27:04.188Z,40.00
2018-02-05T10:28:03.574Z,40.60
2018-02-05T10:29:03.537Z,43.00
2018-02-05T10:30:04.200Z,41.60
2018-02-05T10:31:03.599Z,43.40
2018-02-05T10:32:03.501Z,43.60
2018-02-05T10:33:03.518Z,40.10
2018-02-05T10:34:03.500Z,38.10
2018-02-05T10:35:03.518Z,41.70
2018-02-05T10:36:03.521Z,37.20
2018-02-05T10:37:03.500Z,38.30
2018-02-05T10:38:03.491Z,41.00
2018-02-05T10:39:03.496Z,39.50
2018-02-05T10:40:03.510Z,40.50
2018-02-05T10:41:03.477Z,39.00
2018-02-05T10:42:03.480Z,41.40
2018-02-05T10:43:03.572Z,40.90
2018-02-05T10:44:03.481Z,39.80
2018-02-05T10:45:03.477Z,38.30
2018-02-05T10:46:03.471Z,40.30
2018-02-05T10:47:03.457Z,42.30
2018-02-05T10:48:03.464Z,41.50
2018-02-05T10:49:03.461Z,44.80
2018-02-05T10:50:03.466Z,43.30
2018-02-05T10:51:03.470Z,40.20
2018-02-05T10:52:03.451Z,39.60
2018-02-05T10:53:03.449Z,38.90
2018-02-05T10:54:03.448Z,37.80
2018-02-05T10:55:03.456Z,38.60
2018-02-05T10:56:04.193Z,39.20
2018-02-05T10:57:03.481Z,38.10
2018-02-05T10:58:03.438Z,41.20
2018-02-05T10:59:03.438Z,35.50
2018-02-05T11:00:03.573Z,37.20
2018-02-05T11:01:03.455Z,38.10
2018-02-05T11:02:03.475Z,40.40
2018-02-05T11:03:03.470Z,39.50
2018-02-05T11:04:03.430Z,37.90
2018-02-05T11:05:03.424Z,35.50
2018-02-05T11:06:03.438Z,39.40
2018-02-05T11:07:03.435Z,37.20
2018-02-05T11:08:03.415Z,35.60
2018-02-05T11:09:03.424Z,38.20
2018-02-05T11:10:03.412Z,36.80
2018-02-05T11:11:03.415Z,38.20
2018-02-05T11:12:03.413Z,35.10
2018-02-05T11:13:03.415Z,36.10
2018-02-05T11:14:03.515Z,36.80
2018-02-05T11:15:03.415Z,35.60
2018-02-05T11:16:03.407Z,34.00
2018-02-05T11:17:03.447Z,38.40
2018-02-05T11:18:03.403Z,36.60
2018-02-05T11:19:03.413Z,37.60
2018-02-05T11:20:03.414Z,34.90
2018-02-05T11:21:03.418Z,35.50
2018-02-05T11:22:03.398Z,36.40
2018-02-05T11:23:03.402Z,36.30
2018-02-05T11:24:03.392Z,34.50
2018-02-05T11:25:03.388Z,33.40
2018-02-05T11:26:03.452Z,31.80
2018-02-05T11:27:03.377Z,34.20
2018-02-05T11:28:03.393Z,33.20
2018-02-05T11:29:03.383Z,33.00
2018-02-05T11:30:04.194Z,34.90
2018-02-05T11:31:03.385Z,35.10
2018-02-05T11:32:03.389Z,33.80
2018-02-05T11:33:03.386Z,35.00
2018-02-05T11:34:03.371Z,34.20
2018-02-05T11:35:03.369Z,31.50
2018-02-05T11:36:03.362Z,33.30
2018-02-05T11:37:03.450Z,33.50
2018-02-05T11:38:03.364Z,32.40
2018-02-05T11:39:03.365Z,33.70
2018-02-05T11:40:03.534Z,32.10
2018-02-05T11:41:03.359Z,34.30
2018-02-05T11:42:03.355Z,32.20
2018-02-05T11:43:03.359Z,32.80
2018-02-05T11:44:03.370Z,31.00
2018-02-05T11:45:03.338Z,32.30
2018-02-05T11:46:03.344Z,33.10
2018-02-05T11:47:03.353Z,34.10
2018-02-05T11:48:03.361Z,35.30
2018-02-05T11:49:03.354Z,35.50
2018-02-05T11:50:03.345Z,31.30
2018-02-05T11:51:03.338Z,32.60
2018-02-05T11:52:03.363Z,33.10
2018-02-05T11:53:03.485Z,35.70
2018-02-05T11:54:03.373Z,33.60
2018-02-05T11:55:03.328Z,35.80
2018-02-05T11:56:03.330Z,29.10
2018-02-05T11:57:03.361Z,34.00
2018-02-05T11:58:03.356Z,32.20
2018-02-05T11:59:03.340Z,31.20
2018-02-05T12:00:03.324Z,29.20
2018-02-05T12:01:03.323Z,29.40
2018-02-05T12:02:03.340Z,32.00
2018-02-05T12:03:03.308Z,28.90
2018-02-05T12:04:03.305Z,30.90
2018-02-05T12:05:03.396Z,30.10
2018-02-05T12:06:03.300Z,31.40
2018-02-05T12:07:03.308Z,30.60
2018-02-05T12:08:03.297Z,35.00
2018-02-05T12:09:03.309Z,32.90
2018-02-05T12:10:03.293Z,32.70
2018-02-05T12:11:04.204Z,32.80
2018-02-05T12:12:03.285Z,32.10
2018-02-05T12:13:03.287Z,29.20
2018-02-05T12:14:03.381Z,29.20
2018-02-05T12:15:03.301Z,28.90
2018-02-05T12:16:03.355Z,29.70
2018-02-05T12:17:03.320Z,32.40
2018-02-05T12:18:03.277Z,32.50
2018-02-05T12:19:03.369Z,30.70
2018-02-05T12:20:03.353Z,29.40
2018-02-05T12:21:03.274Z,26.70
2018-02-05T12:22:03.271Z,25.90
2018-02-05T12:23:03.273Z,26.90
2018-02-05T12:24:03.277Z,24.20
2018-02-05T12:25:03.259Z,28.40
2018-02-05T12:26:03.302Z,27.40
2018-02-05T12:27:03.361Z,28.20
2018-02-05T12:28:03.257Z,28.00
2018-02-05T12:29:03.267Z,29.10
2018-02-05T12:30:03.252Z,25.10
2018-02-05T12:31:03.306Z,28.80
2018-02-05T12:32:04.174Z,28.60
2018-02-05T12:33:03.296Z,29.00
2018-02-05T12:34:03.367Z,27.80
2018-02-05T12:35:03.275Z,30.80
2018-02-05T12:36:03.261Z,28.40
2018-02-05T12:37:03.297Z,26.90
2018-02-05T12:38:03.241Z,28.30
2018-02-05T12:39:03.220Z,26.90
2018-02-05T12:40:03.701Z,27.40
2018-02-05T12:41:03.717Z,28.10
2018-02-05T12:42:03.225Z,26.30
2018-02-05T12:43:03.252Z,27.80
2018-02-05T12:44:03.256Z,26.50
2018-02-05T12:45:03.238Z,28.80
2018-02-05T12:46:03.248Z,27.80
2018-02-05T12:47:03.239Z,25.80
2018-02-05T12:48:03.372Z,27.70
2018-02-05T12:49:03.215Z,28.50
2018-02-05T12:50:03.195Z,25.20
2018-02-05T12:51:03.204Z,27.50
2018-02-05T12:52:03.415Z,25.20